Time;durP1;ratioP1;P1;durP2;ratioP2;P2;SDS_P1;SDS_P2;PMS_P1;PMS_P2;Temp;Humidity;BMP_temperature;BMP_pressure;BME280_temperature;BME280_humidity;BME280_pressure;Samples;Min_cycle;Max_cycle;Signal;HPM_P1;HPM_P2
2022/02/21 00:01:34;;;;;;;0.00;0.00;;;;;;;3.01;91.82;99511.44;4958911;28;20038;-69
2022/02/21 00:04:05;;;;;;;0.00;0.00;;;;;;;2.92;92.23;99501.03;4964685;28;20463;-69
2022/02/21 00:06:30;;;;;;;0.00;0.00;;;;;;;2.85;92.11;99535.44;4966490;28;20031;-69
2022/02/21 00:08:56;;;;;;;0.00;0.00;;;;;;;2.74;92.33;99522.75;4966839;28;20030;-70
2022/02/21 00:11:21;;;;;;;0.70;0.70;;;;;;;2.70;92.56;99500.81;4966962;28;20031;-73
2022/02/21 00:13:47;;;;;;;0.00;0.00;;;;;;;2.71;92.88;99490.84;4970328;28;20098;-74
2022/02/21 00:16:12;;;;;;;0.20;0.20;;;;;;;2.61;93.18;99467.97;4973865;28;20035;-71
2022/02/21 00:18:38;;;;;;;5.10;1.30;;;;;;;2.52;92.46;99472.06;4978734;28;20377;-72
2022/02/21 00:21:06;;;;;;;1.52;1.45;;;;;;;2.33;92.78;99474.09;4965379;28;20116;-72
2022/02/21 00:23:31;;;;;;;2.35;1.55;;;;;;;2.29;94.14;99482.88;4965658;28;20023;-72
2022/02/21 00:25:57;;;;;;;1.98;1.85;;;;;;;2.31;95.22;99469.97;4971099;28;20031;-73
2022/02/21 00:28:32;;;;;;;1.60;1.40;;;;;;;2.36;95.64;99483.59;4964805;28;20558;-71
2022/02/21 00:31:07;;;;;;;0.60;0.60;;;;;;;2.45;96.03;99455.19;4955882;28;20062;-72
2022/02/21 00:33:35;;;;;;;0.20;0.20;;;;;;;2.51;97.26;99465.06;4964498;28;20031;-73
2022/02/21 00:36:03;;;;;;;0.00;0.00;;;;;;;2.53;96.67;99430.53;4956350;28;20030;-74
2022/02/21 00:38:28;;;;;;;0.00;0.00;;;;;;;2.55;97.44;99438.41;4957110;28;20022;-74
2022/02/21 00:40:54;;;;;;;0.00;0.00;;;;;;;2.48;97.42;99430.41;4972301;28;20114;-71
2022/02/21 00:43:19;;;;;;;3.95;0.28;;;;;;;2.44;97.25;99475.16;4971390;28;20497;-72
2022/02/21 00:45:47;;;;;;;0.00;0.00;;;;;;;2.42;97.80;99458.34;4968614;28;20023;-72
2022/02/21 00:48:13;;;;;;;0.38;0.38;;;;;;;2.46;97.90;99483.81;4965463;28;20454;-70
2022/02/21 00:50:41;;;;;;;2.72;0.57;;;;;;;2.48;98.08;99472.78;4946254;28;20033;-71
2022/02/21 00:53:07;;;;;;;0.00;0.00;;;;;;;2.47;98.26;99496.28;4955234;28;20022;-70
2022/02/21 00:55:35;;;;;;;1.08;0.77;;;;;;;2.55;98.71;99522.88;4970804;28;20509;-70
2022/02/21 00:58:02;;;;;;;5.05;1.55;;;;;;;2.60;98.89;99506.81;4960132;28;20030;-70
2022/02/21 01:00:28;;;;;;;0.05;0.05;;;;;;;2.66;98.69;99515.00;4966762;28;20501;-71
2022/02/21 01:02:55;;;;;;;0.00;0.00;;;;;;;2.68;98.31;99496.72;4970826;28;20038;-70
2022/02/21 01:05:20;;;;;;;0.52;0.30;;;;;;;2.68;98.23;99512.91;4951957;28;20066;-70
2022/02/21 01:07:46;;;;;;;0.10;0.10;;;;;;;2.64;97.11;99504.44;4965972;28;20539;-69
2022/02/21 01:10:11;;;;;;;0.00;0.00;;;;;;;2.65;97.07;99524.19;4954349;28;20422;-71
2022/02/21 01:12:37;;;;;;;0.00;0.00;;;;;;;2.61;96.22;99507.63;4950463;28;20026;-70
2022/02/21 01:15:07;;;;;;;0.00;0.00;;;;;;;2.58;96.32;99497.31;4970472;28;20031;-70
2022/02/21 01:17:33;;;;;;;2.30;0.40;;;;;;;2.57;95.65;99511.84;4961563;28;20047;-70
2022/02/21 01:20:03;;;;;;;1.48;0.00;;;;;;;2.50;96.38;99512.00;4973176;28;20093;-71
2022/02/21 01:22:31;;;;;;;0.52;0.52;;;;;;;2.44;95.64;99518.31;4955360;28;20038;-69
2022/02/21 01:24:57;;;;;;;1.88;0.80;;;;;;;2.38;95.44;99513.84;4970007;28;20027;-68
2022/02/21 01:27:22;;;;;;;2.42;0.85;;;;;;;2.31;95.46;99518.53;4937288;28;20039;-70
2022/02/21 01:29:48;;;;;;;0.00;0.00;;;;;;;2.27;95.69;99529.78;4969332;28;20027;-70
2022/02/21 01:32:14;;;;;;;0.00;0.00;;;;;;;2.24;96.24;99546.44;4960208;28;20042;-70
2022/02/21 01:34:39;;;;;;;0.90;0.90;;;;;;;2.22;96.06;99545.88;4963197;28;20109;-70
2022/02/21 01:37:05;;;;;;;0.00;0.00;;;;;;;2.22;96.75;99540.47;4956387;28;20027;-69
2022/02/21 01:39:30;;;;;;;0.00;0.00;;;;;;;2.22;96.61;99532.38;4954584;28;20089;-71
2022/02/21 01:41:56;;;;;;;0.10;0.10;;;;;;;2.24;96.57;99524.06;4970776;28;20093;-70
2022/02/21 01:44:34;;;;;;;7.55;3.08;;;;;;;2.24;96.67;99524.06;4953823;28;20030;-70
2022/02/21 01:47:00;;;;;;;0.00;0.00;;;;;;;2.26;97.00;99552.47;4975123;28;20111;-70
2022/02/21 01:49:25;;;;;;;0.00;0.00;;;;;;;2.26;96.72;99528.19;4950754;28;20066;-69
2022/02/21 01:51:51;;;;;;;2.00;1.98;;;;;;;2.29;96.70;99553.03;4976860;28;20050;-71
2022/02/21 01:54:16;;;;;;;0.85;0.85;;;;;;;2.27;97.30;99545.97;4945331;28;20030;-71
2022/02/21 01:56:42;;;;;;;0.00;0.00;;;;;;;2.31;97.07;99540.97;4927863;28;20031;-69
2022/02/21 01:59:07;;;;;;;0.60;0.60;;;;;;;2.37;97.09;99544.59;4965107;28;20038;-68
2022/02/21 02:01:33;;;;;;;0.10;0.10;;;;;;;2.42;97.40;99542.00;4945199;28;20034;-71
2022/02/21 02:04:03;;;;;;;0.80;0.80;;;;;;;2.50;97.45;99543.53;4948596;28;20448;-70
2022/02/21 02:06:30;;;;;;;0.88;0.80;;;;;;;2.53;97.26;99549.31;4965915;28;20049;-69
2022/02/21 02:08:56;;;;;;;2.72;0.45;;;;;;;2.58;97.15;99557.50;4965061;28;20162;-69
2022/02/21 02:11:22;;;;;;;0.00;0.00;;;;;;;2.64;96.97;99541.44;4954476;28;20027;-70
2022/02/21 02:13:51;;;;;;;0.00;0.00;;;;;;;2.69;96.84;99547.78;4916235;28;20373;-70
2022/02/21 02:16:18;;;;;;;0.00;0.00;;;;;;;2.64;96.22;99533.34;4951685;28;20428;-71
2022/02/21 02:18:43;;;;;;;3.30;1.45;;;;;;;2.61;96.61;99508.47;4970070;28;20035;-70
2022/02/21 02:21:13;;;;;;;11.20;1.67;;;;;;;2.60;95.90;99533.81;4952957;28;20045;-70
2022/02/21 02:23:40;;;;;;;0.00;0.00;;;;;;;2.61;96.16;99530.06;4960759;28;20050;-70
2022/02/21 02:26:05;;;;;;;0.00;0.00;;;;;;;2.74;96.04;99528.16;4965128;28;20113;-69
2022/02/21 02:28:31;;;;;;;0.00;0.00;;;;;;;2.84;96.42;99520.28;4968768;28;20109;-69
2022/02/21 02:30:57;;;;;;;0.00;0.00;;;;;;;2.99;96.13;99540.56;4963711;28;20416;-70
2022/02/21 02:33:22;;;;;;;0.40;0.40;;;;;;;3.04;95.24;99529.88;4965643;28;20043;-73
2022/02/21 02:35:48;;;;;;;0.00;0.00;;;;;;;3.01;94.51;99533.03;4975531;28;20018;-72
2022/02/21 02:38:13;;;;;;;0.00;0.00;;;;;;;2.95;94.29;99513.25;4952295;28;20027;-71
2022/02/21 02:40:39;;;;;;;1.75;0.47;;;;;;;2.91;93.24;99539.06;4957990;28;20061;-72
2022/02/21 02:43:04;;;;;;;0.13;0.13;;;;;;;2.92;93.89;99546.94;4974218;28;20038;-71
2022/02/21 02:45:30;;;;;;;15.07;1.83;;;;;;;2.92;93.39;99536.13;4955040;28;20034;-70
2022/02/21 02:47:55;;;;;;;0.00;0.00;;;;;;;2.91;92.89;99523.69;4938681;28;20026;-73
2022/02/21 02:50:21;;;;;;;0.00;0.00;;;;;;;2.92;93.05;99530.72;4967395;28;20023;-72
2022/02/21 02:52:46;;;;;;;5.18;3.15;;;;;;;2.93;92.20;99513.44;4965343;28;20035;-71
2022/02/21 02:55:12;;;;;;;0.00;0.00;;;;;;;2.98;92.31;99518.16;4967180;28;20454;-71
2022/02/21 02:57:37;;;;;;;5.57;0.88;;;;;;;2.96;92.41;99531.91;4924916;28;20023;-72
2022/02/21 03:00:04;;;;;;;0.55;0.55;;;;;;;2.95;92.04;99529.44;4958563;28;20070;-71
2022/02/21 03:02:30;;;;;;;0.17;0.17;;;;;;;2.93;90.92;99521.53;4976975;28;20059;-71
2022/02/21 03:04:55;;;;;;;6.28;0.52;;;;;;;2.98;90.78;99539.75;4987406;28;20063;-71
2022/02/21 03:07:21;;;;;;;0.00;0.00;;;;;;;2.97;90.17;99528.13;4970823;28;20037;-70
2022/02/21 03:09:46;;;;;;;2.17;1.17;;;;;;;3.03;90.13;99530.94;4964742;28;20054;-70
2022/02/21 03:12:12;;;;;;;9.55;0.55;;;;;;;3.07;89.64;99511.31;4948883;28;20038;-71
2022/02/21 03:14:37;;;;;;;18.13;1.25;;;;;;;3.16;89.38;99521.75;4967953;28;20023;-70
2022/02/21 03:17:03;;;;;;;8.02;1.73;;;;;;;3.27;88.74;99537.94;4955274;28;20026;-70
2022/02/21 03:19:28;;;;;;;0.00;0.00;;;;;;;3.37;89.08;99509.47;4951791;28;20030;-70
2022/02/21 03:21:56;;;;;;;0.00;0.00;;;;;;;3.40;88.69;99508.97;4963405;28;20424;-73
2022/02/21 03:24:22;;;;;;;20.08;0.80;;;;;;;3.46;87.84;99518.81;4963951;28;20027;-70
2022/02/21 03:26:48;;;;;;;2.67;2.28;;;;;;;3.47;87.02;99520.47;4965008;28;20031;-71
2022/02/21 03:29:14;;;;;;;0.22;0.13;;;;;;;3.51;87.39;99529.75;4971091;28;20042;-70
2022/02/21 03:31:39;;;;;;;0.00;0.00;;;;;;;3.50;86.63;99525.38;4960438;28;20034;-71
2022/02/21 03:34:05;;;;;;;0.00;0.00;;;;;;;3.52;86.61;99507.06;4974460;28;20047;-69
2022/02/21 03:36:30;;;;;;;3.75;0.95;;;;;;;3.52;86.32;99533.25;4942283;28;20031;-71
2022/02/21 03:38:56;;;;;;;0.68;0.68;;;;;;;3.54;85.98;99521.13;4944649;28;20031;-71
2022/02/21 03:41:22;;;;;;;0.00;0.00;;;;;;;3.56;85.68;99518.19;4968055;28;20038;-69
2022/02/21 03:43:47;;;;;;;5.78;1.65;;;;;;;3.55;85.55;99552.53;4970679;28;20213;-71
2022/02/21 03:46:13;;;;;;;7.03;2.83;;;;;;;3.52;85.00;99522.44;4955723;28;20473;-69
2022/02/21 03:48:38;;;;;;;0.00;0.00;;;;;;;3.51;85.53;99510.00;4953246;28;20544;-69
2022/02/21 03:51:04;;;;;;;0.00;0.00;;;;;;;3.47;85.25;99515.06;4945869;28;20031;-70
2022/02/21 03:53:29;;;;;;;0.00;0.00;;;;;;;3.43;85.65;99492.28;4966313;28;20031;-69
2022/02/21 03:55:57;;;;;;;0.00;0.00;;;;;;;3.46;85.43;99492.63;4964119;28;20046;-70
2022/02/21 03:58:23;;;;;;;5.00;2.03;;;;;;;3.45;84.40;99504.50;4965253;28;20018;-70
2022/02/21 04:00:49;;;;;;;4.90;2.33;;;;;;;3.46;84.18;99502.59;4970047;28;20046;-70
2022/02/21 04:03:14;;;;;;;0.00;0.00;;;;;;;3.48;84.46;99508.59;4950386;28;20027;-70
2022/02/21 04:05:39;;;;;;;0.20;0.20;;;;;;;3.46;84.19;99508.00;4970078;28;20027;-70
2022/02/21 04:08:05;;;;;;;0.45;0.45;;;;;;;3.47;84.30;99515.06;4964292;28;20066;-71
2022/02/21 04:10:31;;;;;;;5.60;1.35;;;;;;;3.47;84.18;99504.25;4951989;28;20039;-70
2022/02/21 04:12:56;;;;;;;0.22;0.22;;;;;;;3.52;83.41;99528.69;4964896;28;20027;-69
2022/02/21 04:15:21;;;;;;;3.20;0.75;;;;;;;3.56;83.79;99502.78;4972106;28;20046;-69
2022/02/21 04:17:52;;;;;;;9.95;0.38;;;;;;;3.58;83.10;99503.38;4954936;28;20027;-68
2022/02/21 04:20:30;;;;;;;0.68;0.45;;;;;;;3.62;82.78;99495.59;4957763;28;20039;-70
2022/02/21 04:22:55;;;;;;;0.05;0.05;;;;;;;3.63;82.20;99498.03;4957132;28;20027;-69
2022/02/21 04:25:22;;;;;;;9.63;1.42;;;;;;;3.66;82.34;99521.94;4965046;28;20027;-69
2022/02/21 04:27:52;;;;;;;0.20;0.20;;;;;;;3.69;82.78;99495.44;4967457;28;20036;-70
2022/02/21 04:30:21;;;;;;;6.07;0.82;;;;;;;3.72;82.82;99498.47;4959134;28;20023;-71
2022/02/21 04:32:47;;;;;;;0.90;0.63;;;;;;;3.75;82.84;99510.69;4975654;28;20150;-70
2022/02/21 04:35:14;;;;;;;9.63;1.63;;;;;;;3.78;83.37;99500.22;4955183;28;20047;-71
2022/02/21 04:37:40;;;;;;;4.57;1.25;;;;;;;3.86;82.69;99512.53;4967050;28;20077;-70
2022/02/21 04:40:08;;;;;;;3.42;1.55;;;;;;;3.92;84.10;99510.72;4968690;28;20042;-70
2022/02/21 04:42:35;;;;;;;0.10;0.10;;;;;;;3.91;84.05;99526.13;4952569;28;20114;-70
2022/02/21 04:45:01;;;;;;;0.40;0.40;;;;;;;3.90;83.66;99499.31;4970900;28;20118;-70
2022/02/21 04:47:27;;;;;;;27.20;0.75;;;;;;;3.80;83.97;99481.84;4977829;28;20047;-72
2022/02/21 04:49:52;;;;;;;11.52;2.67;;;;;;;3.73;84.62;99475.78;4968974;28;20023;-72
2022/02/21 04:52:18;;;;;;;11.85;1.65;;;;;;;3.69;84.25;99482.75;4979231;28;20085;-73
2022/02/21 04:54:44;;;;;;;32.67;2.80;;;;;;;3.63;84.24;99479.13;4977544;28;20032;-74
2022/02/21 04:57:09;;;;;;;16.45;3.85;;;;;;;3.59;84.37;99466.34;4969064;28;20065;-71
2022/02/21 04:59:35;;;;;;;2.75;2.55;;;;;;;3.70;83.88;99516.84;4968529;28;20540;-70
2022/02/21 05:02:00;;;;;;;9.18;2.15;;;;;;;3.80;83.37;99506.19;4968795;28;20046;-71
2022/02/21 05:04:27;;;;;;;0.05;0.05;;;;;;;3.87;81.73;99500.66;4968919;28;20035;-70
2022/02/21 05:06:52;;;;;;;7.10;2.40;;;;;;;3.96;82.49;99528.94;4951482;28;20121;-72
2022/02/21 05:09:17;;;;;;;0.00;0.00;;;;;;;4.05;82.15;99521.22;4956742;28;20076;-72
2022/02/21 05:11:43;;;;;;;23.17;1.55;;;;;;;4.12;80.96;99511.06;4971792;28;20077;-71
2022/02/21 05:14:08;;;;;;;2.78;2.58;;;;;;;4.11;80.23;99508.59;4960937;23;20058;-68
2022/02/21 05:16:34;;;;;;;1.63;1.52;;;;;;;4.19;79.57;99508.19;4974572;28;20053;-69
2022/02/21 05:19:02;;;;;;;26.05;2.10;;;;;;;4.23;79.43;99505.81;4970881;28;20054;-69
2022/02/21 05:21:28;;;;;;;19.10;2.67;;;;;;;4.27;80.03;99486.13;4970418;28;20031;-70
2022/02/21 05:23:54;;;;;;;7.68;3.15;;;;;;;4.31;79.03;99492.69;4969131;28;20404;-71
2022/02/21 05:26:20;;;;;;;6.95;0.82;;;;;;;4.34;79.10;99485.97;4980260;28;20030;-69
2022/02/21 05:28:45;;;;;;;3.50;3.22;;;;;;;4.40;79.01;99478.75;4952075;28;20038;-70
2022/02/21 05:31:10;;;;;;;2.53;0.85;;;;;;;4.43;78.76;99505.31;4938524;29;20041;-70
2022/02/21 05:33:36;;;;;;;10.02;3.55;;;;;;;4.45;78.72;99524.81;4960039;28;20027;-70
2022/02/21 05:36:01;;;;;;;17.63;5.15;;;;;;;4.45;78.95;99546.47;4939695;28;20038;-70
2022/02/21 05:38:27;;;;;;;28.98;5.00;;;;;;;4.48;79.52;99518.91;4972381;28;20034;-69
2022/02/21 05:40:52;;;;;;;7.85;1.48;;;;;;;4.53;79.98;99506.28;4955477;28;20034;-69
2022/02/21 05:43:18;;;;;;;14.00;0.55;;;;;;;4.52;80.23;99504.63;4972488;28;20027;-69
2022/02/21 05:45:43;;;;;;;3.72;1.08;;;;;;;4.47;80.68;99503.75;4975920;28;20038;-72
2022/02/21 05:48:09;;;;;;;1.42;1.17;;;;;;;4.43;80.92;99505.31;4960398;28;20027;-73
2022/02/21 05:50:34;;;;;;;7.97;1.55;;;;;;;4.40;80.52;99527.47;4973028;28;20031;-72
2022/02/21 05:53:00;;;;;;;1.80;1.60;;;;;;;4.40;81.06;99516.66;4966571;28;20041;-72
2022/02/21 05:55:25;;;;;;;8.95;1.65;;;;;;;4.38;81.33;99525.00;4961532;28;20022;-72
2022/02/21 05:57:58;;;;;;;19.52;4.28;;;;;;;4.40;81.53;99513.94;4961838;28;20473;-72
2022/02/21 06:00:24;;;;;;;29.40;4.65;;;;;;;4.40;81.61;99505.81;4956899;28;20061;-72
2022/02/21 06:02:49;;;;;;;20.88;3.53;;;;;;;4.41;82.21;99502.03;4963824;28;20086;-73
2022/02/21 06:05:15;;;;;;;1.55;1.23;;;;;;;4.45;82.04;99487.72;4965976;28;20026;-72
2022/02/21 06:07:41;;;;;;;1.33;1.27;;;;;;;4.48;81.00;99525.16;4974892;28;20035;-72
2022/02/21 06:10:06;;;;;;;0.30;0.30;;;;;;;4.53;81.39;99527.94;4959219;28;20022;-73
2022/02/21 06:12:32;;;;;;;9.30;3.00;;;;;;;4.55;81.71;99497.91;4961762;28;20121;-72
2022/02/21 06:14:59;;;;;;;5.05;1.92;;;;;;;4.58;80.91;99519.06;4967573;28;20125;-72
2022/02/21 06:17:25;;;;;;;1.65;0.40;;;;;;;4.60;81.10;99522.34;4975818;28;20069;-71
2022/02/21 06:19:50;;;;;;;4.57;1.40;;;;;;;4.63;81.05;99532.69;4970108;28;20101;-71
2022/02/21 06:22:17;;;;;;;5.93;4.63;;;;;;;4.65;81.08;99530.53;4957102;28;20062;-72
2022/02/21 06:24:44;;;;;;;4.70;2.63;;;;;;;4.71;80.16;99534.94;4942435;28;20027;-71
2022/02/21 06:27:09;;;;;;;0.15;0.15;;;;;;;4.76;79.42;99536.09;4962870;28;21264;-72
2022/02/21 06:29:35;;;;;;;2.83;1.90;;;;;;;4.85;78.57;99537.34;4972193;28;20138;-73
2022/02/21 06:32:00;;;;;;;3.78;1.45;;;;;;;4.93;78.40;99515.22;4980608;28;20622;-73
2022/02/21 06:34:26;;;;;;;11.18;3.60;;;;;;;4.97;77.58;99575.97;4974983;28;20035;-69
2022/02/21 06:36:51;;;;;;;9.20;2.88;;;;;;;5.03;77.61;99509.91;4969277;28;20015;-70
2022/02/21 06:39:19;;;;;;;5.68;2.47;;;;;;;5.12;77.40;99540.13;4957001;28;20791;-70
2022/02/21 06:41:46;;;;;;;18.90;2.92;;;;;;;5.22;77.62;99526.69;4968714;28;20031;-69
2022/02/21 06:44:13;;;;;;;40.08;4.53;;;;;;;5.31;75.70;99548.75;4962467;28;20035;-70
2022/02/21 06:46:42;;;;;;;3.47;3.17;;;;;;;5.37;76.56;99553.19;4978395;28;20142;-69
2022/02/21 06:49:09;;;;;;;2.08;0.45;;;;;;;5.48;76.51;99542.44;4973023;28;20037;-70
2022/02/21 06:51:37;;;;;;;0.75;0.52;;;;;;;5.48;75.76;99537.84;4972550;28;20038;-69
2022/02/21 06:54:04;;;;;;;5.68;3.30;;;;;;;5.59;77.48;99522.47;4967537;28;20027;-71
2022/02/21 06:56:30;;;;;;;1.80;1.00;;;;;;;5.64;78.45;99536.13;4971689;28;20039;-70
2022/02/21 06:58:55;;;;;;;0.52;0.52;;;;;;;5.59;77.75;99533.34;4975291;28;20039;-70
2022/02/21 07:01:21;;;;;;;0.40;0.32;;;;;;;5.49;77.73;99533.22;4971100;28;20045;-70
2022/02/21 07:03:48;;;;;;;27.65;1.88;;;;;;;5.41;77.91;99521.75;4984748;28;20050;-71
2022/02/21 07:06:14;;;;;;;0.00;0.00;;;;;;;5.43;78.00;99545.91;4988852;28;20035;-71
2022/02/21 07:08:40;;;;;;;0.05;0.05;;;;;;;5.48;78.45;99537.84;4993162;28;20039;-70
2022/02/21 07:11:06;;;;;;;22.58;3.42;;;;;;;5.43;77.47;99562.16;4981750;28;20030;-72
2022/02/21 07:13:31;;;;;;;4.75;1.23;;;;;;;5.44;77.81;99547.56;4954573;28;20069;-70
2022/02/21 07:15:58;;;;;;;0.35;0.35;;;;;;;5.51;77.84;99541.94;4975816;28;20571;-72
2022/02/21 07:18:23;;;;;;;0.22;0.22;;;;;;;5.53;77.86;99535.16;4961425;28;20413;-73
2022/02/21 07:20:48;;;;;;;4.85;3.15;;;;;;;5.63;77.69;99539.91;4936940;28;20083;-73
2022/02/21 07:23:14;;;;;;;13.80;2.38;;;;;;;5.65;77.81;99524.19;4962473;28;20593;-71
2022/02/21 07:25:42;;;;;;;10.43;2.30;;;;;;;5.64;77.80;99541.53;4938988;28;20045;-73
2022/02/21 07:28:15;;;;;;;6.30;3.25;;;;;;;5.65;76.93;99515.22;4971255;28;20052;-73
2022/02/21 07:30:44;;;;;;;3.08;2.78;;;;;;;5.72;76.76;99521.28;4973529;28;20018;-73
2022/02/21 07:33:09;;;;;;;43.97;7.43;;;;;;;5.84;76.16;99502.13;4976148;28;20022;-70
2022/02/21 07:35:35;;;;;;;17.88;4.05;;;;;;;5.84;77.05;99540.09;4964012;28;20047;-70
2022/02/21 07:38:01;;;;;;;6.90;3.05;;;;;;;5.88;75.93;99505.97;4943451;28;20031;-71
2022/02/21 07:40:26;;;;;;;14.15;5.25;;;;;;;5.85;75.61;99509.19;4975182;28;20041;-70
2022/02/21 07:42:54;;;;;;;26.30;5.10;;;;;;;5.86;75.67;99527.13;4938045;29;20024;-70
2022/02/21 07:45:24;;;;;;;23.92;6.05;;;;;;;5.88;75.22;99590.88;4980881;28;20030;-73
2022/02/21 07:48:01;;;;;;;21.35;4.03;;;;;;;5.87;74.81;99539.59;4980936;28;20031;-70
2022/02/21 07:50:30;;;;;;;11.27;1.85;;;;;;;5.89;75.35;99513.84;4971467;28;20096;-71
2022/02/21 07:52:56;;;;;;;23.83;3.97;;;;;;;5.88;74.54;99568.38;4952424;28;20436;-73
2022/02/21 07:55:27;;;;;;;26.98;4.45;;;;;;;5.83;75.18;99543.91;4945274;28;20030;-72
2022/02/21 07:57:53;;;;;;;11.18;4.38;;;;;;;5.86;74.96;99521.69;4962896;28;20021;-74
2022/02/21 08:00:20;;;;;;;21.80;3.95;;;;;;;5.92;74.16;99564.06;4953065;28;20031;-75
2022/02/21 08:02:49;;;;;;;6.72;2.53;;;;;;;5.92;73.57;99536.94;4963499;28;20054;-74
2022/02/21 08:05:20;;;;;;;3.30;1.88;;;;;;;5.99;74.17;99539.47;4945418;29;20038;-74
2022/02/21 08:07:53;;;;;;;50.72;2.83;;;;;;;5.97;73.44;99550.56;4959703;28;20142;-75
2022/02/21 08:10:22;;;;;;;9.45;2.45;;;;;;;6.01;73.64;99540.03;4951197;28;20030;-73
2022/02/21 08:12:50;;;;;;;15.65;6.07;;;;;;;6.09;73.41;99540.38;4959508;28;20166;-75
2022/02/21 08:15:25;;;;;;;;;;;;;;;;;;;;;
2022/02/21 08:17:51;;;;;;;3.70;1.27;;;;;;;6.25;72.46;99606.50;4962411;28;20114;-73
2022/02/21 08:20:23;;;;;;;18.17;3.05;;;;;;;6.29;72.37;99623.91;4974162;28;20449;-75
2022/02/21 08:22:57;;;;;;;20.08;3.85;;;;;;;6.39;71.79;99573.47;4957196;28;20481;-74
2022/02/21 08:25:30;;;;;;;34.50;4.85;;;;;;;6.44;71.13;99593.34;4958557;28;20034;-73
2022/02/21 08:28:01;;;;;;;11.50;2.50;;;;;;;6.47;71.22;99571.09;4958259;28;20106;-75
2022/02/21 08:30:27;;;;;;;5.25;2.28;;;;;;;6.59;71.06;99605.44;4932508;28;20027;-73
2022/02/21 08:32:55;;;;;;;4.38;1.73;;;;;;;6.56;70.49;99587.75;4961823;28;20551;-72
2022/02/21 08:35:21;;;;;;;26.20;3.53;;;;;;;6.67;70.72;99634.81;4950620;28;20077;-72
2022/02/21 08:37:52;;;;;;;17.08;4.22;;;;;;;6.61;70.20;99619.56;4975787;28;20154;-73
2022/02/21 08:40:22;;;;;;;7.38;2.30;;;;;;;6.72;69.83;99644.94;4952207;28;20050;-72
2022/02/21 08:42:48;;;;;;;9.07;2.60;;;;;;;6.69;69.82;99643.53;4970318;28;20058;-72
2022/02/21 08:45:14;;;;;;;0.55;0.55;;;;;;;6.72;70.56;99674.81;4961320;28;20027;-73
2022/02/21 08:50:56;;;;;;;11.98;2.08;;;;;;;6.82;68.93;99681.16;4977641;28;20042;-74
2022/02/21 08:53:22;;;;;;;4.05;3.00;;;;;;;6.80;69.09;99726.78;4956302;28;20457;-72
2022/02/21 08:55:55;;;;;;;18.52;1.75;;;;;;;6.80;68.63;99677.88;4945329;28;20070;-76
2022/02/21 08:58:46;;;;;;;;;;;;;;;;;;;;;
2022/02/21 09:01:21;;;;;;;17.00;4.32;;;;;;;6.88;68.16;99694.75;4983467;28;20086;-74
2022/02/21 09:04:11;;;;;;;4.07;0.85;;;;;;;6.88;68.38;99700.19;4961577;28;20043;-77
2022/02/21 09:09:46;;;;;;;18.95;3.20;;;;;;;6.92;67.68;99712.19;4919716;29;20087;-75
2022/02/21 09:12:12;;;;;;;3.83;3.42;;;;;;;6.93;67.30;99708.41;4922387;29;20036;-75
2022/02/21 09:14:56;;;;;;;;;;;;;;;;;;;;;
2022/02/21 09:17:22;;;;;;;11.40;4.28;;;;;;;6.97;67.94;99721.22;4940057;29;20105;-75
2022/02/21 09:19:57;;;;;;;0.65;0.65;;;;;;;7.07;67.45;99746.88;4920552;29;20063;-76
2022/02/21 09:22:52;;;;;;;0.32;0.32;;;;;;;7.08;67.35;99762.91;4918604;29;20087;-75
2022/02/21 09:25:45;;;;;;;7.30;1.10;;;;;;;7.10;67.57;99790.66;4927936;29;20294;-74
2022/02/21 09:28:31;;;;;;;2.28;2.17;;;;;;;7.06;66.85;99784.09;4916404;29;20519;-75
2022/02/21 09:37:33;;;;;;;;;;;;;;;;;;;;;
2022/02/21 09:39:59;;;;;;;15.07;2.97;;;;;;;7.19;66.96;99829.06;4864989;29;20097;-74
2022/02/21 09:42:50;;;;;;;;;;;;;;;;;;;;;
2022/02/21 09:52:55;;;;;;;;;;;;;;;;;;;;;
2022/02/21 09:55:47;;;;;;;0.22;0.22;;;;;;;7.28;67.94;99840.31;4886995;29;20123;-75
2022/02/21 09:58:23;;;;;;;;;;;;;;;;;;;;;
2022/02/21 10:01:09;;;;;;;1.55;1.40;;;;;;;7.26;67.63;99845.19;4910680;29;20232;-75
2022/02/21 10:07:12;;;;;;;23.20;1.08;;;;;;;7.40;68.06;99859.97;4911668;29;20051;-74
2022/02/21 10:10:20;;;;;;;7.60;2.13;;;;;;;7.39;67.07;99858.34;4969203;28;20042;-76
2022/02/21 10:13:50;;;;;;;2.53;1.52;;;;;;;7.39;67.81;99880.13;4929453;29;20059;-74
2022/02/21 10:19:52;;;;;;;;;;;;;;;;;;;;;
2022/02/21 10:23:51;;;;;;;;;;;;;;;;;;;;;
2022/02/21 10:26:09;;;;;;;9.85;2.88;;;;;;;7.23;68.23;99906.34;4973977;28;20059;-75
2022/02/21 10:39:48;;;;;;;17.73;2.90;;;;;;;7.88;66.38;99935.50;4930106;29;20031;-74
2022/02/21 10:50:06;;;;;;;10.05;3.28;;;;;;;8.15;66.35;99985.28;4865804;29;20045;-74
2022/02/21 11:36:20;;;;;;;0.70;0.55;;;;;;;10.65;60.33;100040.13;5023460;23;20059;-72
2022/02/21 11:38:49;;;;;;;0.50;0.50;;;;;;;10.82;58.85;100063.63;4967298;28;20217;-70
2022/02/21 11:41:15;;;;;;;2.55;1.17;;;;;;;10.78;57.16;100076.22;4972553;28;20114;-73
2022/02/21 11:43:43;;;;;;;22.67;2.92;;;;;;;10.50;57.16;100053.81;4947196;28;20062;-74
2022/02/21 11:46:41;;;;;;;9.85;2.30;;;;;;;10.26;58.20;100067.19;4961811;28;20064;-75
2022/02/21 11:49:07;;;;;;;13.88;2.50;;;;;;;10.02;59.45;100069.63;4938208;28;20081;-74
2022/02/21 11:51:35;;;;;;;0.00;0.00;;;;;;;10.01;60.56;100078.91;4949153;28;20061;-76
2022/02/21 11:54:09;;;;;;;16.77;4.22;;;;;;;9.85;59.68;100097.97;4981741;28;20031;-76
2022/02/21 11:56:50;;;;;;;7.13;1.10;;;;;;;9.60;60.82;100077.69;4987935;28;20011;-76
2022/02/21 11:59:21;;;;;;;1.02;0.65;;;;;;;9.42;61.24;100084.47;4987162;28;20020;-76
2022/02/21 12:02:13;;;;;;;12.50;1.75;;;;;;;9.37;64.67;100097.28;4985477;28;20009;-75
2022/02/21 12:04:50;;;;;;;9.25;4.53;;;;;;;10.05;64.70;100097.22;4977206;28;20062;-74
2022/02/21 12:07:23;;;;;;;0.25;0.25;;;;;;;10.69;61.12;100121.59;4993304;28;20506;-70
2022/02/21 12:10:08;;;;;;;4.28;2.55;;;;;;;10.85;57.97;100131.47;4980611;28;20142;-70
2022/02/21 12:12:57;;;;;;;4.28;0.22;;;;;;;11.05;58.40;100107.91;4968684;28;20053;-72
2022/02/21 12:15:31;;;;;;;3.08;2.25;;;;;;;11.43;58.55;100124.75;4975673;28;20107;-71
2022/02/21 12:18:13;;;;;;;0.00;0.00;;;;;;;11.69;55.50;100118.06;4977439;28;20070;-70
2022/02/21 12:21:11;;;;;;;14.93;2.38;;;;;;;11.70;56.48;100141.63;4968195;28;20050;-68
2022/02/21 12:27:48;;;;;;;26.67;2.75;;;;;;;12.17;55.90;100123.06;4944180;28;20061;-70
2022/02/21 12:37:02;;;;;;;6.57;5.00;;;;;;;13.05;52.45;100164.34;4917473;28;20076;-72
2022/02/21 12:42:38;;;;;;;0.00;0.00;;;;;;;13.58;52.41;100165.47;4921166;29;20138;-73
2022/02/21 12:45:17;;;;;;;;;;;;;;;;;;;;;
2022/02/21 12:47:51;;;;;;;1.75;1.02;;;;;;;15.02;47.43;100179.94;4914687;29;20151;-70
2022/02/21 12:50:16;;;;;;;0.00;0.00;;;;;;;15.57;48.67;100195.75;4905187;29;20186;-72
2022/02/21 12:52:45;;;;;;;0.10;0.10;;;;;;;15.95;45.60;100183.75;4912068;29;20067;-72
2022/02/21 12:55:15;;;;;;;0.00;0.00;;;;;;;16.00;43.26;100209.28;4952988;28;20078;-73
2022/02/21 12:57:41;;;;;;;0.35;0.35;;;;;;;16.00;43.50;100209.28;4972298;28;20024;-70
2022/02/21 13:00:07;;;;;;;0.00;0.00;;;;;;;16.22;46.40;100204.94;4969056;28;20114;-70
2022/02/21 13:02:34;;;;;;;10.65;0.75;;;;;;;16.54;43.24;100230.72;4951996;28;20038;-71
2022/02/21 13:04:59;;;;;;;0.00;0.00;;;;;;;16.88;44.43;100219.19;4948429;28;20114;-71
2022/02/21 13:07:27;;;;;;;0.00;0.00;;;;;;;18.03;45.50;100237.19;4965874;28;20110;-72
2022/02/21 13:10:08;;;;;;;0.00;0.00;;;;;;;18.41;44.15;100233.88;4944279;28;20046;-71
2022/02/21 13:12:34;;;;;;;0.00;0.00;;;;;;;18.91;42.02;100236.22;4952341;28;20023;-71
2022/02/21 13:15:00;;;;;;;0.50;0.50;;;;;;;18.90;36.93;100237.34;4956598;28;20035;-72
2022/02/21 13:17:25;;;;;;;0.15;0.15;;;;;;;18.72;37.69;100244.00;4955967;28;20047;-71
2022/02/21 13:19:51;;;;;;;0.10;0.10;;;;;;;18.47;37.65;100246.41;4949289;28;20036;-71
2022/02/21 13:22:24;;;;;;;0.43;0.43;;;;;;;18.31;36.88;100244.13;4934997;29;20035;-71
2022/02/21 13:24:50;;;;;;;0.00;0.00;;;;;;;18.26;36.99;100249.78;4966552;28;20030;-70
2022/02/21 13:27:29;;;;;;;0.20;0.20;;;;;;;18.38;38.30;100245.59;4956849;28;20038;-72
2022/02/21 13:29:56;;;;;;;0.00;0.00;;;;;;;18.55;40.98;100251.16;4948545;28;20094;-70
2022/02/21 13:32:22;;;;;;;0.00;0.00;;;;;;;18.24;36.88;100254.84;4952835;28;20049;-71
2022/02/21 13:34:58;;;;;;;0.00;0.00;;;;;;;17.99;39.86;100266.63;4955020;28;20099;-77
2022/02/21 13:37:31;;;;;;;0.00;0.00;;;;;;;18.63;42.68;100272.50;4976510;28;20066;-74
2022/02/21 13:40:02;;;;;;;0.43;0.43;;;;;;;19.40;40.51;100265.66;4965023;28;20477;-71
2022/02/21 13:42:37;;;;;;;0.00;0.00;;;;;;;19.42;39.33;100272.50;4964333;28;20027;-72